This is the latest recevied weather packets stored in our database for station/object WB5CFT. If no packets are shown the sender has not sent any weather packets the latest 1 day(s).
| Time | Temp. | Humidity | Pressure | Rain* | Wind** | Luminosity | Snow |
|---|---|---|---|---|---|---|---|
| 1778031609 | 25° C | 33% | 1010.1 hPa | 0 mm | 0.89 m/s, 276° | 4 W/m² | - |
| 1778031307 | 25° C | 33% | 1010 hPa | 0 mm | 2.68 m/s, 253° | 5 W/m² | - |
| 1778031003 | 25° C | 33% | 1009.9 hPa | 0 mm | 1.34 m/s, 251° | 8 W/m² | - |
| 1778030699 | 25° C | 33% | 1009.8 hPa | 0 mm | 0.89 m/s, 258° | 13 W/m² | - |
| 1778030396 | 25.56° C | 33% | 1009.8 hPa | 0 mm | 1.79 m/s, 236° | 18 W/m² | - |
| 1778030094 | 25.56° C | 32% | 1009.8 hPa | 0 mm | 3.13 m/s, 266° | 26 W/m² | - |
| 1778029790 | 25.56° C | 32% | 1009.5 hPa | 0 mm | 3.13 m/s, 284° | 33 W/m² | - |
| 1778029489 | 26.11° C | 32% | 1009.6 hPa | 0 mm | 2.68 m/s, 272° | 41 W/m² | - |
| 1778029185 | 26.11° C | 32% | 1009.9 hPa | 0 mm | 2.24 m/s, 274° | 54 W/m² | - |
| 1778028883 | 26.11° C | 32% | 1009.9 hPa | 0 mm | 0.45 m/s, 217° | 70 W/m² | - |
| 1778028578 | 26.11° C | 31% | 1009.9 hPa | 0 mm | 1.79 m/s, 214° | 77 W/m² | - |
| 1778028276 | 26.11° C | 32% | 1009.9 hPa | 0 mm | 2.68 m/s, 230° | 83 W/m² | - |
| 1778027972 | 26.11° C | 32% | 1009.8 hPa | 0 mm | 0.89 m/s, 246° | 82 W/m² | - |
| 1778027669 | 25.56° C | 32% | 1009.8 hPa | 0 mm | 1.79 m/s, 201° | 64 W/m² | - |
| 1778027365 | 25.56° C | 32% | 1009.8 hPa | 0 mm | 0.89 m/s, 269° | 73 W/m² | - |
| 1778027061 | 26.11° C | 32% | 1009.9 hPa | 0 mm | 0.89 m/s, 250° | 78 W/m² | - |
| 1778026756 | 26.67° C | 31% | 1009.9 hPa | 0 mm | 1.79 m/s, 281° | 137 W/m² | - |
| 1778026454 | 26.11° C | 32% | 1010 hPa | 0 mm | 2.68 m/s, 282° | 142 W/m² | - |
| 1778026151 | 25.56° C | 32% | 1010.1 hPa | 0 mm | 1.34 m/s, 263° | 122 W/m² | - |
| 1778025849 | 25.56° C | 32% | 1009.9 hPa | 0 mm | 1.79 m/s, 254° | 98 W/m² | - |
| 1778025545 | 25.56° C | 32% | 1010.2 hPa | 0 mm | 1.34 m/s, 270° | 88 W/m² | - |
| 1778025243 | 25.56° C | 32% | 1010.1 hPa | 0 mm | 1.34 m/s, 281° | 87 W/m² | - |
| 1778024940 | 25.56° C | 31% | 1009.9 hPa | 0 mm | 2.68 m/s, 239° | 97 W/m² | - |
| 1778024638 | 26.11° C | 31% | 1010.2 hPa | 0 mm | 1.79 m/s, 264° | 109 W/m² | - |
| 1778024334 | 26.11° C | 31% | 1010.1 hPa | 0 mm | 2.68 m/s, 281° | 112 W/m² | - |
* Rain latest hour (hover to see other rain measurements)
** Current wind speed in m/s (hover to see current wind gust speed)